createdAt,value
2023-04-26T00:02:22.999Z,5.60
2023-04-26T00:04:56.500Z,5.61
2023-04-26T00:07:24.769Z,5.63
2023-04-26T00:09:53.389Z,5.65
2023-04-26T00:12:22.103Z,5.60
2023-04-26T00:14:51.493Z,5.62
2023-04-26T00:17:19.436Z,5.60
2023-04-26T00:19:47.280Z,5.51
2023-04-26T00:22:15.503Z,5.46
2023-04-26T00:24:43.507Z,5.39
2023-04-26T00:27:11.352Z,5.41
2023-04-26T00:29:39.235Z,5.44
2023-04-26T00:32:08.654Z,5.50
2023-04-26T00:34:38.665Z,5.46
2023-04-26T00:37:06.805Z,5.17
2023-04-26T00:39:34.744Z,5.19
2023-04-26T00:42:02.812Z,5.25
2023-04-26T00:44:30.610Z,5.28
2023-04-26T00:46:58.613Z,5.20
2023-04-26T00:49:27.852Z,5.22
2023-04-26T00:51:56.645Z,5.19
2023-04-26T00:54:25.795Z,5.18
2023-04-26T00:56:53.701Z,5.13
2023-04-26T00:59:22.100Z,5.04
2023-04-26T01:01:50.051Z,4.94
2023-04-26T01:04:19.284Z,4.88
2023-04-26T01:06:48.874Z,4.80
2023-04-26T01:09:16.681Z,4.78
2023-04-26T01:11:45.742Z,4.83
2023-04-26T01:14:15.959Z,4.87
2023-04-26T01:16:46.920Z,4.85
2023-04-26T01:19:15.360Z,4.81
2023-04-26T01:21:44.080Z,4.75
2023-04-26T01:24:14.736Z,4.56
2023-04-26T01:26:47.323Z,4.41
2023-04-26T01:29:19.554Z,4.40
2023-04-26T01:31:48.312Z,4.36
2023-04-26T01:34:17.055Z,4.34
2023-04-26T01:36:44.917Z,4.31
2023-04-26T01:39:14.079Z,4.36
2023-04-26T01:41:41.885Z,4.39
2023-04-26T01:44:09.699Z,4.33
2023-04-26T01:46:37.568Z,4.31
2023-04-26T01:49:05.980Z,4.27
2023-04-26T01:51:34.310Z,4.21
2023-04-26T01:54:02.130Z,4.26
2023-04-26T01:56:31.307Z,4.29
2023-04-26T01:58:59.240Z,4.22
2023-04-26T02:01:27.325Z,4.16
2023-04-26T02:03:55.436Z,4.03
2023-04-26T02:06:23.446Z,4.10
2023-04-26T02:08:51.566Z,4.03
2023-04-26T02:11:19.682Z,3.91
2023-04-26T02:13:48.983Z,3.98
2023-04-26T02:16:17.091Z,4.04
2023-04-26T02:18:45.460Z,3.89
2023-04-26T02:21:13.438Z,3.90
2023-04-26T02:23:41.406Z,3.94
2023-04-26T02:26:12.710Z,3.94
2023-04-26T02:28:40.622Z,3.86
2023-04-26T02:31:10.129Z,3.88
2023-04-26T02:33:38.221Z,3.75
2023-04-26T02:36:07.143Z,3.79
2023-04-26T02:38:36.401Z,3.75
2023-04-26T02:41:05.424Z,3.78
2023-04-26T02:43:33.645Z,3.78
2023-04-26T02:46:01.611Z,3.66
2023-04-26T02:48:30.994Z,3.68
2023-04-26T02:50:58.922Z,3.71
2023-04-26T02:53:26.844Z,3.63
2023-04-26T02:55:54.731Z,3.71
2023-04-26T02:58:22.671Z,3.64
2023-04-26T03:00:51.024Z,3.64
2023-04-26T03:03:23.085Z,3.63
2023-04-26T03:05:52.650Z,3.57
2023-04-26T03:08:20.598Z,3.37
2023-04-26T03:10:48.579Z,3.18
2023-04-26T03:13:16.538Z,3.02
2023-04-26T03:15:47.055Z,3.08
2023-04-26T03:18:15.001Z,3.27
2023-04-26T03:20:43.201Z,3.31
2023-04-26T03:23:12.426Z,3.23
2023-04-26T03:25:40.498Z,3.27
2023-04-26T03:28:08.394Z,3.35
2023-04-26T03:30:37.491Z,3.28
2023-04-26T03:33:05.416Z,3.35
2023-04-26T03:35:33.400Z,3.40
2023-04-26T03:38:01.433Z,3.58
2023-04-26T03:40:30.856Z,3.57
2023-04-26T03:42:58.770Z,3.45
2023-04-26T03:45:27.023Z,3.32
2023-04-26T03:47:55.102Z,3.33
2023-04-26T03:50:23.575Z,3.28
2023-04-26T03:52:51.571Z,3.41
2023-04-26T03:55:19.591Z,3.46
2023-04-26T03:57:49.515Z,3.49
2023-04-26T04:00:17.611Z,3.42
2023-04-26T04:02:45.734Z,3.56
2023-04-26T04:05:13.978Z,3.50
2023-04-26T04:07:42.098Z,3.50
2023-04-26T04:10:11.564Z,3.43
2023-04-26T04:12:39.558Z,3.49
2023-04-26T04:15:10.451Z,3.68
2023-04-26T04:17:38.920Z,3.43
2023-04-26T04:20:08.783Z,3.42
2023-04-26T04:22:36.775Z,3.42
2023-04-26T04:25:05.912Z,3.59
2023-04-26T04:27:33.781Z,3.47
2023-04-26T04:30:03.581Z,3.31
2023-04-26T04:32:34.354Z,3.35
2023-04-26T04:35:02.369Z,3.38
2023-04-26T04:37:33.116Z,3.48
2023-04-26T04:40:01.260Z,3.43
2023-04-26T04:42:29.268Z,3.40
2023-04-26T04:44:59.788Z,3.35
2023-04-26T04:47:27.707Z,3.27
2023-04-26T04:49:57.268Z,3.14
2023-04-26T04:52:25.166Z,3.13
2023-04-26T04:54:53.066Z,3.19
2023-04-26T04:57:31.359Z,3.25
2023-04-26T04:59:59.409Z,3.32
2023-04-26T05:02:27.487Z,3.45
2023-04-26T05:04:57.223Z,3.52
2023-04-26T05:07:25.969Z,3.61
2023-04-26T05:09:54.620Z,3.55
2023-04-26T05:12:22.504Z,3.48
2023-04-26T05:14:50.616Z,3.55
2023-04-26T05:17:18.631Z,3.56
2023-04-26T05:19:46.579Z,3.70
2023-04-26T05:22:18.374Z,3.68
2023-04-26T05:24:47.628Z,3.67
2023-04-26T05:27:15.945Z,3.65
2023-04-26T05:29:43.915Z,3.68
2023-04-26T05:32:11.900Z,3.71
2023-04-26T05:34:39.967Z,3.63
2023-04-26T05:37:07.950Z,3.64
2023-04-26T05:39:37.330Z,3.68
2023-04-26T05:42:05.408Z,3.84
2023-04-26T05:44:33.317Z,3.87
2023-04-26T05:47:01.179Z,3.82
2023-04-26T05:49:29.071Z,3.76
2023-04-26T05:51:56.846Z,3.69
2023-04-26T05:54:24.922Z,3.56
2023-04-26T05:56:54.177Z,3.60
2023-04-26T05:59:22.242Z,3.87
2023-04-26T06:01:50.129Z,3.85
2023-04-26T06:04:18.339Z,4.06
2023-04-26T06:06:46.469Z,4.20
2023-04-26T06:09:14.318Z,4.12
2023-04-26T06:11:42.174Z,4.17
2023-04-26T06:14:23.169Z,4.29
2023-04-26T06:16:58.034Z,4.36
2023-04-26T06:19:26.827Z,4.43
2023-04-26T06:21:57.125Z,4.47
2023-04-26T06:24:25.889Z,4.50
2023-04-26T06:26:53.773Z,4.59
2023-04-26T06:29:25.460Z,4.69
2023-04-26T06:31:53.335Z,4.74
2023-04-26T06:34:24.294Z,4.90
2023-04-26T06:36:52.295Z,4.91
2023-04-26T06:39:20.377Z,4.80
2023-04-26T06:41:48.944Z,5.09
2023-04-26T06:44:17.861Z,5.17
2023-04-26T06:46:47.214Z,5.03
2023-04-26T06:49:15.139Z,4.94
2023-04-26T06:51:43.018Z,5.06
2023-04-26T06:54:11.469Z,5.29
2023-04-26T06:56:41.845Z,5.38
2023-04-26T06:59:09.754Z,4.94
2023-04-26T07:01:38.123Z,4.97
2023-04-26T07:04:10.949Z,5.25
2023-04-26T07:06:39.786Z,5.36
2023-04-26T07:09:08.637Z,5.25
2023-04-26T07:11:37.708Z,5.55
2023-04-26T07:14:07.823Z,6.03
2023-04-26T07:16:35.819Z,5.94
2023-04-26T07:19:07.411Z,5.86
2023-04-26T07:21:36.671Z,5.75
2023-04-26T07:24:05.003Z,5.78
2023-04-26T07:26:32.910Z,5.62
2023-04-26T07:29:01.085Z,5.96
2023-04-26T07:31:28.994Z,5.90
2023-04-26T07:33:57.369Z,5.74
2023-04-26T07:36:25.652Z,6.06
2023-04-26T07:38:54.918Z,5.94
2023-04-26T07:41:22.857Z,6.07
2023-04-26T07:43:50.879Z,6.05
2023-04-26T07:46:19.127Z,6.06
2023-04-26T07:48:47.336Z,6.43
2023-04-26T07:51:15.322Z,6.90
2023-04-26T07:53:43.363Z,7.11
2023-04-26T07:56:12.706Z,7.06
2023-04-26T07:58:40.849Z,6.92
2023-04-26T08:01:11.931Z,6.96
2023-04-26T08:03:39.997Z,6.73
2023-04-26T08:06:11.465Z,7.55
2023-04-26T08:08:44.687Z,7.49
2023-04-26T08:11:14.051Z,7.04
2023-04-26T08:13:43.920Z,7.13
2023-04-26T08:16:15.077Z,7.46
2023-04-26T08:18:45.375Z,7.33
2023-04-26T08:21:17.401Z,7.73
2023-04-26T08:23:45.335Z,7.43
2023-04-26T08:26:14.583Z,7.69
2023-04-26T08:28:42.465Z,7.86
2023-04-26T08:31:10.440Z,8.07
2023-04-26T08:33:38.362Z,8.11
2023-04-26T08:36:06.980Z,8.06
2023-04-26T08:38:35.290Z,7.93
2023-04-26T08:41:05.411Z,7.82
2023-04-26T08:43:37.734Z,7.81
2023-04-26T08:46:12.549Z,7.85
2023-04-26T08:48:42.046Z,8.30
2023-04-26T08:51:14.057Z,8.89
2023-04-26T08:53:43.953Z,8.72
2023-04-26T08:56:15.403Z,8.75
2023-04-26T08:58:44.697Z,8.84
2023-04-26T09:01:17.092Z,8.53
2023-04-26T09:03:45.162Z,8.41
2023-04-26T09:06:14.342Z,8.57
2023-04-26T09:08:44.044Z,8.39
2023-04-26T09:11:11.893Z,8.32
2023-04-26T09:13:39.861Z,8.05
2023-04-26T09:16:12.563Z,9.24
2023-04-26T09:18:50.803Z,9.46
2023-04-26T09:21:20.151Z,9.22
2023-04-26T09:24:04.406Z,9.17
2023-04-26T09:26:32.339Z,9.38
2023-04-26T09:29:18.556Z,8.91
2023-04-26T09:31:51.057Z,8.78
2023-04-26T09:34:18.994Z,8.80
2023-04-26T09:36:51.515Z,8.54
2023-04-26T09:39:37.256Z,8.94
2023-04-26T09:42:06.035Z,8.40
2023-04-26T09:44:34.344Z,8.25
2023-04-26T09:47:06.155Z,8.26
2023-04-26T09:49:44.364Z,8.16
2023-04-26T09:52:12.294Z,8.91
2023-04-26T09:54:45.651Z,8.98
2023-04-26T09:57:15.544Z,9.78
2023-04-26T09:59:45.610Z,9.60
2023-04-26T10:02:20.574Z,9.81
2023-04-26T10:04:51.260Z,9.54
2023-04-26T10:07:21.585Z,9.29
2023-04-26T10:09:50.996Z,10.04
2023-04-26T10:12:23.311Z,9.86
2023-04-26T10:14:51.314Z,10.18
2023-04-26T10:17:21.830Z,10.22
2023-04-26T10:19:56.441Z,11.20
2023-04-26T10:22:28.147Z,11.04
2023-04-26T10:24:57.003Z,11.13
2023-04-26T10:27:53.196Z,10.84
2023-04-26T10:30:24.190Z,9.84
2023-04-26T10:33:17.595Z,9.43
2023-04-26T10:36:15.726Z,9.61
2023-04-26T10:39:20.351Z,9.59
2023-04-26T10:41:48.744Z,9.63
2023-04-26T10:44:40.064Z,9.61
2023-04-26T10:47:12.612Z,10.19
2023-04-26T10:49:48.729Z,9.91
2023-04-26T10:52:20.181Z,10.16
2023-04-26T10:55:00.368Z,10.30
2023-04-26T10:57:52.818Z,9.99
2023-04-26T11:00:32.911Z,9.84
2023-04-26T11:03:06.526Z,9.86
2023-04-26T11:08:30.250Z,9.27
2023-04-26T11:11:01.177Z,9.09
2023-04-26T11:13:31.555Z,9.45
2023-04-26T11:16:04.205Z,9.20
2023-04-26T11:18:33.546Z,8.98
2023-04-26T11:21:02.019Z,9.20
2023-04-26T11:23:32.534Z,9.38
2023-04-26T11:26:02.898Z,9.88
2023-04-26T11:28:33.898Z,10.82
2023-04-26T11:31:04.150Z,11.08
2023-04-26T11:33:34.113Z,11.21
2023-04-26T11:36:02.294Z,10.66
2023-04-26T11:38:31.564Z,9.63
2023-04-26T11:41:01.540Z,10.07
2023-04-26T11:43:36.928Z,10.49
2023-04-26T11:46:06.693Z,10.57
2023-04-26T11:48:36.830Z,10.17
2023-04-26T11:51:07.214Z,9.72
2023-04-26T11:53:41.968Z,9.68
2023-04-26T11:56:17.679Z,9.67
2023-04-26T11:58:47.061Z,9.96
2023-04-26T12:01:22.022Z,10.04
2023-04-26T12:03:52.436Z,9.86
2023-04-26T12:06:21.387Z,9.91
2023-04-26T12:08:54.026Z,10.15
2023-04-26T12:11:22.083Z,10.29
2023-04-26T12:13:50.035Z,10.39
2023-04-26T12:16:26.114Z,10.47
2023-04-26T12:18:56.708Z,10.80
2023-04-26T12:21:26.839Z,11.25
2023-04-26T12:23:57.481Z,11.22
2023-04-26T12:26:44.740Z,11.14
2023-04-26T12:29:12.885Z,11.58
2023-04-26T12:31:41.005Z,11.29
2023-04-26T12:34:09.181Z,10.70
2023-04-26T12:36:37.184Z,10.26
2023-04-26T12:39:06.898Z,10.73
2023-04-26T12:41:34.992Z,10.74
2023-04-26T12:44:03.125Z,10.85
2023-04-26T12:46:31.241Z,10.44
2023-04-26T12:48:59.561Z,10.18
2023-04-26T12:51:27.467Z,10.63
2023-04-26T12:53:55.341Z,10.53
2023-04-26T12:56:25.542Z,10.27
2023-04-26T12:58:53.475Z,10.17
2023-04-26T13:01:23.544Z,10.06
2023-04-26T13:03:51.630Z,10.47
2023-04-26T13:06:19.735Z,10.60
2023-04-26T13:08:47.796Z,10.82
2023-04-26T13:11:16.379Z,10.75
2023-04-26T13:13:45.617Z,10.94
2023-04-26T13:16:13.646Z,11.03
2023-04-26T13:18:41.710Z,11.27
2023-04-26T13:21:09.535Z,11.38
2023-04-26T13:23:37.487Z,11.18
2023-04-26T13:26:05.364Z,11.39
2023-04-26T13:28:33.321Z,11.27
2023-04-26T13:31:04.881Z,11.10
2023-04-26T13:33:32.812Z,10.79
2023-04-26T13:36:00.789Z,10.59
2023-04-26T13:38:29.443Z,10.45
2023-04-26T13:40:58.588Z,10.89
2023-04-26T13:43:26.569Z,10.95
2023-04-26T13:45:54.588Z,11.19
2023-04-26T13:48:23.864Z,11.05
2023-04-26T13:50:51.924Z,11.03
2023-04-26T13:53:20.625Z,11.13
2023-04-26T13:55:48.830Z,11.10
2023-04-26T13:58:21.922Z,10.97
2023-04-26T14:00:49.927Z,10.51
2023-04-26T14:03:20.952Z,10.99
2023-04-26T14:08:21.198Z,12.04
2023-04-26T14:10:49.305Z,12.06
2023-04-26T14:13:17.131Z,11.85
2023-04-26T14:15:44.976Z,11.39
2023-04-26T14:18:12.933Z,11.03
2023-04-26T14:20:40.925Z,11.19
2023-04-26T14:23:08.747Z,11.27
2023-04-26T14:25:38.009Z,11.46
2023-04-26T14:28:05.835Z,11.02
2023-04-26T14:30:33.628Z,10.96
2023-04-26T14:33:01.531Z,10.83
2023-04-26T14:35:29.388Z,11.12
2023-04-26T14:37:57.286Z,11.41
2023-04-26T14:40:25.186Z,11.41
2023-04-26T14:42:54.389Z,12.25
2023-04-26T14:45:27.810Z,12.52
2023-04-26T14:48:02.338Z,13.77
2023-04-26T14:50:30.517Z,14.01
2023-04-26T14:52:58.342Z,13.02
2023-04-26T14:55:27.192Z,12.49
2023-04-26T14:57:56.374Z,12.28
2023-04-26T15:00:25.541Z,11.55
2023-04-26T15:02:53.504Z,11.56
2023-04-26T15:05:24.152Z,11.26
2023-04-26T15:07:52.070Z,11.03
2023-04-26T15:10:19.958Z,11.32
2023-04-26T15:12:47.760Z,11.12
2023-04-26T15:15:17.157Z,11.16
2023-04-26T15:17:45.017Z,11.00
2023-04-26T15:20:13.413Z,11.14
2023-04-26T15:22:47.275Z,11.49
2023-04-26T15:25:15.366Z,11.69
2023-04-26T15:27:43.171Z,11.61
2023-04-26T15:30:14.382Z,11.45
2023-04-26T15:32:43.639Z,11.76
2023-04-26T15:35:15.187Z,12.87
2023-04-26T15:37:44.116Z,13.28
2023-04-26T15:40:13.099Z,13.28
2023-04-26T15:42:40.981Z,12.56
2023-04-26T15:45:09.813Z,12.13
2023-04-26T15:47:38.057Z,11.71
2023-04-26T15:50:09.136Z,11.46
2023-04-26T15:52:39.273Z,11.24
2023-04-26T15:55:08.636Z,11.38
2023-04-26T15:57:36.760Z,11.35
2023-04-26T16:00:06.098Z,11.33
2023-04-26T16:02:33.951Z,11.72
2023-04-26T16:05:01.934Z,11.93
2023-04-26T16:07:32.029Z,11.74
2023-04-26T16:09:59.950Z,11.57
2023-04-26T16:12:27.772Z,11.56
2023-04-26T16:14:56.057Z,11.58
2023-04-26T16:17:23.881Z,11.66
2023-04-26T16:19:51.724Z,11.32
2023-04-26T16:22:19.586Z,11.39
2023-04-26T16:24:48.772Z,11.33
2023-04-26T16:27:20.972Z,11.25
2023-04-26T16:29:49.424Z,11.05
2023-04-26T16:32:17.310Z,11.17
2023-04-26T16:34:45.072Z,11.64
2023-04-26T16:37:12.831Z,11.93
2023-04-26T16:39:40.733Z,11.61
2023-04-26T16:42:09.953Z,11.52
2023-04-26T16:44:37.780Z,11.58
2023-04-26T16:47:05.863Z,11.26
2023-04-26T16:49:33.853Z,11.18
2023-04-26T16:52:01.820Z,11.31
2023-04-26T16:54:29.834Z,11.45
2023-04-26T16:56:58.397Z,11.40
2023-04-26T16:59:33.615Z,11.32
2023-04-26T17:02:01.662Z,11.37
2023-04-26T17:04:29.772Z,11.30
2023-04-26T17:06:57.690Z,11.18
2023-04-26T17:09:26.561Z,10.99
2023-04-26T17:11:54.363Z,10.85
2023-04-26T17:14:22.218Z,10.81
2023-04-26T17:16:51.407Z,10.71
2023-04-26T17:19:19.224Z,10.75
2023-04-26T17:21:47.058Z,10.78
2023-04-26T17:24:14.908Z,10.94
2023-04-26T17:26:42.841Z,11.00
2023-04-26T17:29:10.757Z,10.87
2023-04-26T17:31:38.675Z,10.80
2023-04-26T17:34:07.882Z,10.81
2023-04-26T17:36:35.746Z,10.71
2023-04-26T17:39:03.732Z,10.71
2023-04-26T17:41:31.720Z,11.09
2023-04-26T17:43:59.570Z,11.14
2023-04-26T17:46:27.593Z,11.28
2023-04-26T17:48:55.826Z,11.46
2023-04-26T17:51:27.804Z,11.31
2023-04-26T17:53:55.706Z,11.17
2023-04-26T17:56:23.556Z,11.01
2023-04-26T17:58:51.368Z,10.97
2023-04-26T18:01:20.140Z,10.91
2023-04-26T18:03:48.301Z,10.94
2023-04-26T18:06:17.977Z,10.82
2023-04-26T18:08:49.548Z,10.76
2023-04-26T18:11:18.714Z,10.63
2023-04-26T18:13:47.975Z,10.38
2023-04-26T18:16:17.033Z,10.07
2023-04-26T18:18:45.011Z,9.87
2023-04-26T18:21:13.062Z,9.62
2023-04-26T18:23:41.595Z,9.37
2023-04-26T18:26:10.933Z,9.33
2023-04-26T18:28:38.721Z,9.13
2023-04-26T18:31:08.061Z,9.01
2023-04-26T18:33:36.015Z,8.93
2023-04-26T18:36:03.887Z,8.78
2023-04-26T18:38:31.831Z,8.59
2023-04-26T18:40:59.846Z,8.42
2023-04-26T18:43:29.066Z,8.36
2023-04-26T18:45:56.926Z,8.36
2023-04-26T18:48:24.794Z,8.26
2023-04-26T18:50:53.819Z,8.06
2023-04-26T18:53:23.537Z,7.88
2023-04-26T18:55:53.186Z,7.89
2023-04-26T18:58:21.059Z,7.84
2023-04-26T19:00:50.580Z,7.69
2023-04-26T19:03:19.088Z,7.55
2023-04-26T19:05:47.232Z,7.45
2023-04-26T19:08:15.096Z,7.43
2023-04-26T19:10:43.019Z,7.33
2023-04-26T19:13:10.924Z,7.29
2023-04-26T19:15:38.748Z,7.28
2023-04-26T19:18:08.110Z,7.26
2023-04-26T19:20:36.967Z,7.24
2023-04-26T19:23:04.832Z,7.15
2023-04-26T19:25:33.040Z,7.01
2023-04-26T19:28:01.407Z,6.99
2023-04-26T19:30:29.226Z,6.92
2023-04-26T19:32:57.279Z,6.96
2023-04-26T19:35:26.588Z,6.78
2023-04-26T19:37:54.524Z,6.88
2023-04-26T19:40:22.406Z,6.85
2023-04-26T19:42:50.338Z,6.83
2023-04-26T19:45:20.484Z,6.86
2023-04-26T19:47:48.459Z,6.80
2023-04-26T19:50:16.437Z,6.73
2023-04-26T19:52:46.134Z,6.61
2023-04-26T19:55:14.890Z,6.62
2023-04-26T19:57:42.811Z,6.61
2023-04-26T20:00:11.834Z,6.61
2023-04-26T20:02:39.700Z,6.62
2023-04-26T20:05:09.264Z,6.64
2023-04-26T20:07:37.501Z,6.48
2023-04-26T20:10:09.246Z,6.34
2023-04-26T20:12:47.993Z,5.95
2023-04-26T20:15:42.939Z,6.10
2023-04-26T20:18:24.696Z,6.12
2023-04-26T20:20:52.803Z,6.43
2023-04-26T20:23:23.209Z,6.49
2023-04-26T20:25:53.852Z,6.61
2023-04-26T20:28:22.748Z,6.62
2023-04-26T20:30:51.263Z,6.58
2023-04-26T20:33:20.948Z,6.61
2023-04-26T20:35:49.568Z,6.53
2023-04-26T20:38:17.769Z,6.54
2023-04-26T20:40:46.071Z,6.52
2023-04-26T20:43:16.745Z,6.70
2023-04-26T20:45:45.081Z,6.70
2023-04-26T20:48:15.241Z,6.70
2023-04-26T20:50:43.940Z,6.78
2023-04-26T20:53:12.215Z,6.81
2023-04-26T20:55:41.066Z,6.59
2023-04-26T20:58:09.423Z,6.78
2023-04-26T21:00:39.226Z,6.63
2023-04-26T21:03:09.465Z,6.62
2023-04-26T21:05:37.860Z,6.42
2023-04-26T21:08:18.349Z,6.66
2023-04-26T21:20:34.738Z,6.91
2023-04-26T21:27:03.656Z,6.74
2023-04-26T21:29:47.671Z,6.68
2023-04-26T21:33:20.732Z,6.47
2023-04-26T21:42:17.160Z,6.73
2023-04-26T21:48:04.068Z,6.50
2023-04-26T22:00:38.499Z,6.64
2023-04-26T22:24:08.452Z,6.17
2023-04-26T22:41:24.124Z,6.58
2023-04-26T22:57:15.848Z,6.58
2023-04-26T23:00:35.610Z,6.53
2023-04-26T23:57:52.694Z,6.53
